Time;durP1;ratioP1;P1;durP2;ratioP2;P2;SDS_P1;SDS_P2;PMS_P1;PMS_P2;Temp;Humidity;BMP_temperature;BMP_pressure;BME280_temperature;BME280_humidity;BME280_pressure;Samples;Min_cycle;Max_cycle;Signal;HPM_P1;HPM_P2
2022/04/10 00:02:13;;;;;;;;;18.50;18.00;;;;;10.23;66.02;101784.38;5077521;28;45266;-78
2022/04/10 00:04:39;;;;;;;;;21.25;21.00;;;;;10.18;66.51;101782.28;5077191;28;46114;-75
2022/04/10 00:07:04;;;;;;;;;23.00;21.75;;;;;10.14;66.81;101785.50;5076959;28;45465;-77
2022/04/10 00:09:30;;;;;;;;;22.25;21.50;;;;;10.06;67.51;101777.25;5077597;28;45231;-76
2022/04/10 00:11:56;;;;;;;;;22.75;21.75;;;;;10.00;67.24;101785.53;5080126;28;45474;-78
2022/04/10 00:14:21;;;;;;;;;21.00;21.00;;;;;9.93;66.97;101783.38;5077919;27;45464;-77
2022/04/10 00:16:47;;;;;;;;;21.75;19.50;;;;;9.91;67.86;101775.50;5077190;28;45410;-76
2022/04/10 00:19:12;;;;;;;;;23.25;20.25;;;;;9.75;68.21;101758.13;5076720;28;45380;-77
2022/04/10 00:21:38;;;;;;;;;23.75;21.00;;;;;9.84;68.72;101781.09;5076153;28;45593;-78
2022/04/10 00:24:04;;;;;;;;;26.50;24.00;;;;;9.82;68.19;101777.50;5076667;28;45398;-79
2022/04/10 00:26:29;;;;;;;;;22.00;21.50;;;;;9.82;68.45;101777.50;5077130;28;45435;-77
2022/04/10 00:28:56;;;;;;;;;24.25;20.00;;;;;9.75;68.66;101762.41;5077448;28;45425;-77
2022/04/10 00:31:22;;;;;;;;;19.50;17.50;;;;;9.85;68.91;101777.72;5077556;27;45480;-78
2022/04/10 00:33:48;;;;;;;;;24.50;22.75;;;;;9.85;69.10;101785.47;5077277;28;45956;-80
2022/04/10 00:36:14;;;;;;;;;24.50;22.00;;;;;9.82;69.45;101768.88;5076957;28;45255;-80
2022/04/10 00:38:40;;;;;;;;;27.00;25.75;;;;;9.79;70.43;101774.72;5076969;27;45268;-79
2022/04/10 00:41:06;;;;;;;;;24.25;21.25;;;;;9.71;70.26;101763.00;5076838;28;45473;-79
2022/04/10 00:43:32;;;;;;;;;25.00;23.00;;;;;9.81;70.45;101775.72;5076914;28;45470;-78
2022/04/10 00:46:01;;;;;;;;;21.00;20.25;;;;;9.79;70.07;101772.13;5076575;27;45489;-76
2022/04/10 00:48:27;;;;;;;;;25.75;24.50;;;;;9.73;70.30;101771.75;5076982;28;45276;-80
2022/04/10 00:53:39;;;;;;;;;20.00;18.00;;;;;9.69;67.66;101767.16;5096553;27;45518;-78
2022/04/10 00:56:05;;;;;;;;;24.00;20.25;;;;;9.59;67.73;101764.00;5099791;27;45234;-78
2022/04/10 00:58:32;;;;;;;;;20.00;19.50;;;;;9.64;68.20;101777.22;5097870;27;45989;-77
2022/04/10 01:00:58;;;;;;;;;21.50;21.00;;;;;9.59;68.48;101770.88;5096944;27;45531;-79
2022/04/10 01:03:23;;;;;;;;;22.25;18.75;;;;;9.66;68.88;101780.81;5094470;27;45394;-80
2022/04/10 01:05:49;;;;;;;;;21.25;20.25;;;;;9.59;68.92;101763.13;5076601;28;45484;-78
2022/04/10 01:08:15;;;;;;;;;19.00;19.00;;;;;9.57;69.25;101773.34;5076646;28;45494;-79
2022/04/10 01:10:42;;;;;;;;;20.50;19.25;;;;;9.56;69.53;101776.72;5076987;27;45227;-78
2022/04/10 01:13:08;;;;;;;;;20.50;19.00;;;;;9.60;69.30;101775.25;5076276;28;46097;-78
2022/04/10 01:15:34;;;;;;;;;20.75;17.75;;;;;9.55;69.57;101780.13;5076170;27;45344;-79
2022/04/10 01:18:00;;;;;;;;;23.00;20.00;;;;;9.53;70.19;101778.22;5075889;27;45303;-78
2022/04/10 01:20:26;;;;;;;;;21.50;19.00;;;;;9.50;70.54;101783.22;5087544;27;45430;-77
2022/04/10 01:22:53;;;;;;;;;20.00;20.00;;;;;9.43;71.07;101766.41;5096521;27;46326;-79
2022/04/10 01:25:19;;;;;;;;;21.00;21.00;;;;;9.37;71.16;101763.41;5096359;27;45432;-80
2022/04/10 01:27:44;;;;;;;;;24.50;23.25;;;;;9.35;71.12;101760.72;5096741;27;45390;-79
2022/04/10 01:30:12;;;;;;;;;17.25;15.00;;;;;9.45;70.48;101775.13;5096598;27;45483;-78
2022/04/10 01:32:37;;;;;;;;;21.50;18.50;;;;;9.46;70.45;101779.50;5090849;27;46538;-77
2022/04/10 01:35:04;;;;;;;;;21.00;17.50;;;;;9.42;70.64;101778.41;5077390;27;45326;-78
2022/04/10 01:37:31;;;;;;;;;25.50;20.00;;;;;9.38;71.54;101772.97;5076338;28;45353;-77
2022/04/10 01:39:57;;;;;;;;;21.25;20.25;;;;;9.38;72.02;101767.78;5076933;27;45447;-78
2022/04/10 01:42:23;;;;;;;;;25.25;23.50;;;;;9.36;72.54;101769.38;5096274;27;45473;-76
2022/04/10 01:44:48;;;;;;;;;22.00;20.50;;;;;9.34;71.66;101769.28;5096298;27;45497;-78
2022/04/10 01:47:14;;;;;;;;;22.25;20.50;;;;;9.38;72.30;101780.72;5095884;27;45413;-80
2022/04/10 01:49:40;;;;;;;;;23.25;21.25;;;;;9.31;71.26;101775.94;5096785;27;45417;-77
2022/04/10 01:52:06;;;;;;;;;18.50;18.00;;;;;9.21;69.60;101757.25;5084648;27;45943;-79
2022/04/10 01:54:31;;;;;;;;;16.50;14.50;;;;;9.23;68.52;101768.56;5075691;28;45869;-79
2022/04/10 01:56:57;;;;;;;;;22.75;19.50;;;;;9.15;70.05;101756.84;5075692;27;45374;-78
2022/04/10 01:59:23;;;;;;;;;23.75;19.00;;;;;9.18;71.42;101764.81;5076538;28;45611;-77
2022/04/10 02:01:48;;;;;;;;;20.25;18.50;;;;;9.16;70.61;101761.22;5057407;28;46869;-78
2022/04/10 02:04:15;;;;;;;;;21.50;19.00;;;;;9.13;71.33;101761.91;5075467;28;45367;-79
2022/04/10 02:06:41;;;;;;;;;21.25;19.50;;;;;9.13;72.01;101763.59;5075860;28;45398;-79
2022/04/10 02:09:10;;;;;;;;;22.00;20.00;;;;;9.10;72.42;101745.31;5075202;28;45606;-79
2022/04/10 02:11:35;;;;;;;;;28.25;22.50;;;;;9.15;73.70;101759.41;5075324;27;45550;-78
2022/04/10 02:14:01;;;;;;;;;28.50;25.75;;;;;9.14;74.18;101765.38;5076523;28;45255;-79
2022/04/10 02:16:27;;;;;;;;;27.75;25.75;;;;;9.06;75.32;101759.72;5078067;28;45271;-79
2022/04/10 02:18:53;;;;;;;;;25.00;24.75;;;;;8.94;75.98;101739.13;5076817;28;45457;-77
2022/04/10 02:21:19;;;;;;;;;27.25;25.75;;;;;9.05;76.85;101768.28;5075325;28;45759;-79
2022/04/10 02:23:45;;;;;;;;;32.25;27.75;;;;;9.02;76.81;101762.88;5075688;28;45388;-79
2022/04/10 02:26:12;;;;;;;;;28.00;25.00;;;;;8.85;77.44;101740.22;5075097;28;45734;-79
2022/04/10 02:28:38;;;;;;;;;29.75;26.75;;;;;8.96;77.91;101763.38;5075663;28;45386;-79
2022/04/10 02:31:04;;;;;;;;;33.75;30.25;;;;;8.95;78.30;101764.16;5074946;28;46142;-77
2022/04/10 02:33:32;;;;;;;;;32.25;28.25;;;;;8.92;79.34;101763.94;5075288;28;45455;-77
2022/04/10 02:35:58;;;;;;;;;26.25;24.75;;;;;8.93;80.04;101768.31;5075111;28;45199;-78
2022/04/10 02:38:23;;;;;;;;;34.00;30.00;;;;;8.89;79.53;101763.78;5075855;28;45288;-76
2022/04/10 02:40:49;;;;;;;;;35.50;33.50;;;;;8.92;79.03;101766.53;5074924;27;45236;-78
2022/04/10 02:43:14;;;;;;;;;33.50;30.00;;;;;8.81;78.83;101755.50;5075080;28;45253;-77
2022/04/10 02:45:43;;;;;;;;;28.25;27.00;;;;;8.77;78.58;101768.09;5090706;27;45362;-77
2022/04/10 02:48:09;;;;;;;;;28.75;28.75;;;;;8.75;78.85;101764.50;5098649;27;45466;-75
2022/04/10 02:50:39;;;;;;;;;30.75;29.00;;;;;8.78;79.17;101778.53;5098861;27;45972;-77
2022/04/10 02:53:05;;;;;;;;;32.25;29.00;;;;;8.77;78.97;101781.91;5097029;27;45487;-77
2022/04/10 02:55:30;;;;;;;;;33.00;28.75;;;;;8.74;78.91;101778.22;5079533;28;45437;-76
2022/04/10 02:57:56;;;;;;;;;30.00;27.75;;;;;8.65;79.13;101761.31;5078808;27;45409;-76
2022/04/10 03:00:22;;;;;;;;;25.25;24.75;;;;;8.64;79.18;101766.34;5078440;27;45963;-77
2022/04/10 03:02:47;;;;;;;;;31.00;28.50;;;;;8.69;79.71;101775.31;5078192;28;45432;-76
2022/04/10 03:05:14;;;;;;;;;32.75;27.00;;;;;8.64;79.95;101768.94;5077632;27;45468;-77
2022/04/10 03:07:41;;;;;;;;;32.00;26.25;;;;;8.64;79.52;101776.69;5078299;27;45668;-75
2022/04/10 03:10:07;;;;;;;;;26.00;25.00;;;;;8.61;80.14;101772.22;5093799;27;45632;-78
2022/04/10 03:12:33;;;;;;;;;31.75;28.25;;;;;8.64;81.50;101781.84;5098439;27;45886;-78
2022/04/10 03:14:58;;;;;;;;;27.75;27.00;;;;;8.62;81.07;101776.59;5098378;27;45209;-78
2022/04/10 03:17:24;;;;;;;;;33.25;30.75;;;;;8.61;80.33;101781.66;5099287;27;45417;-78
2022/04/10 03:19:49;;;;;;;;;29.25;28.00;;;;;8.60;80.53;101779.88;5097105;27;46162;-76
2022/04/10 03:22:15;;;;;;;;;28.75;25.25;;;;;8.61;80.46;101789.41;5077589;27;45212;-77
2022/04/10 03:24:41;;;;;;;;;30.00;27.50;;;;;8.62;80.52;101779.16;5059709;28;45481;-78
2022/04/10 03:27:06;;;;;;;;;26.25;23.75;;;;;8.58;80.91;101776.28;5077908;28;45252;-78
2022/04/10 03:29:32;;;;;;;;;25.75;22.25;;;;;8.63;81.69;101774.91;5078735;27;45446;-76
2022/04/10 03:31:57;;;;;;;;;14.00;12.00;;;;;8.67;81.36;101780.41;5078468;28;45392;-76
2022/04/10 03:34:23;;;;;;;;;30.00;28.75;;;;;8.68;81.80;101781.28;5079646;27;45393;-76
2022/04/10 03:36:49;;;;;;;;;34.75;30.50;;;;;8.69;81.78;101789.94;5078359;28;45596;-77
2022/04/10 03:39:14;;;;;;;;;29.50;25.00;;;;;8.62;80.40;101779.16;5077243;28;46091;-79
2022/04/10 03:41:40;;;;;;;;;33.75;27.75;;;;;8.56;79.98;101765.84;5077246;28;45407;-76
2022/04/10 03:44:06;;;;;;;;;25.50;25.50;;;;;8.63;78.82;101786.13;5077394;28;45292;-77
2022/04/10 03:46:31;;;;;;;;;25.75;24.25;;;;;8.64;79.51;101780.19;5077772;28;45240;-77
2022/04/10 03:48:57;;;;;;;;;25.25;22.75;;;;;8.66;79.85;101790.59;5058584;28;46273;-79
2022/04/10 03:51:23;;;;;;;;;23.50;21.75;;;;;8.63;78.64;101774.91;5077158;28;45406;-79
2022/04/10 03:53:48;;;;;;;;;24.25;23.75;;;;;8.66;78.11;101777.69;5059281;28;45226;-78
2022/04/10 03:56:14;;;;;;;;;24.50;23.50;;;;;8.65;77.20;101773.31;5077022;27;45559;-77
2022/04/10 03:58:40;;;;;;;;;27.25;25.00;;;;;8.65;78.48;101776.81;5077352;28;45465;-77
2022/04/10 04:01:05;;;;;;;;;23.75;22.25;;;;;8.59;78.59;101770.31;5077352;28;45348;-78
2022/04/10 04:03:31;;;;;;;;;26.50;23.25;;;;;8.49;77.16;101764.53;5077518;28;45483;-78
2022/04/10 04:05:57;;;;;;;;;24.50;24.50;;;;;8.60;76.67;101782.44;5077140;28;45436;-78
2022/04/10 04:08:22;;;;;;;;;25.75;24.25;;;;;8.60;76.21;101779.88;5077237;28;46469;-77
2022/04/10 04:10:48;;;;;;;;;37.75;33.75;;;;;8.59;76.80;101773.78;5077477;27;45429;-77
2022/04/10 04:13:14;;;;;;;;;35.50;28.50;;;;;8.57;77.35;101775.41;5078750;28;45284;-79
2022/04/10 04:15:40;;;;;;;;;26.75;25.75;;;;;8.43;78.25;101764.06;5081573;28;45580;-79
2022/04/10 04:18:06;;;;;;;;;37.00;33.50;;;;;8.44;78.76;101759.81;5079917;28;45306;-79
2022/04/10 04:20:31;;;;;;;;;30.75;26.50;;;;;8.28;78.10;101744.97;5058620;28;45379;-80
2022/04/10 04:22:57;;;;;;;;;33.25;31.00;;;;;8.44;78.89;101778.75;5076989;27;45263;-78
2022/04/10 04:25:22;;;;;;;;;34.25;31.50;;;;;8.33;80.22;101771.97;5077693;28;45228;-77
2022/04/10 04:27:48;;;;;;;;;27.50;25.25;;;;;8.36;80.33;101769.59;5076877;28;45453;-76
2022/04/10 04:30:13;;;;;;;;;25.00;24.00;;;;;8.40;79.15;101779.34;5076659;28;45318;-79
2022/04/10 04:32:39;;;;;;;;;38.00;35.00;;;;;8.36;79.78;101786.00;5058736;28;45347;-77
2022/04/10 04:35:05;;;;;;;;;39.75;34.75;;;;;8.36;80.53;101798.00;5076805;28;45272;-78
2022/04/10 04:37:31;;;;;;;;;30.00;26.50;;;;;8.30;80.43;101789.84;5076567;27;45542;-77
2022/04/10 04:39:57;;;;;;;;;26.00;23.00;;;;;8.18;80.61;101771.78;5076096;28;45383;-79
2022/04/10 04:42:22;;;;;;;;;32.50;27.50;;;;;8.17;80.84;101777.75;5076902;28;45350;-78
2022/04/10 04:44:48;;;;;;;;;28.50;24.50;;;;;8.12;81.45;101786.84;5077085;28;45339;-77
2022/04/10 04:47:13;;;;;;;;;23.00;22.75;;;;;8.23;81.52;101805.66;5074849;27;47315;-77
2022/04/10 04:49:39;;;;;;;;;29.00;26.75;;;;;8.15;80.99;101799.97;5075949;28;45402;-78
2022/04/10 04:52:05;;;;;;;;;23.25;21.00;;;;;8.22;80.58;101820.25;5056456;28;45372;-76
2022/04/10 04:54:30;;;;;;;;;20.50;19.25;;;;;8.17;80.60;101814.75;5076902;27;45548;-77
2022/04/10 04:56:56;;;;;;;;;19.25;18.75;;;;;8.13;80.56;101817.91;5077956;28;45406;-77
2022/04/10 04:59:22;;;;;;;;;18.25;17.75;;;;;7.94;80.12;101787.31;5058473;28;45348;-78
2022/04/10 05:01:47;;;;;;;;;21.25;17.25;;;;;8.02;79.67;101803.34;5076390;28;45293;-76
2022/04/10 05:04:13;;;;;;;;;20.75;20.75;;;;;7.99;79.50;101798.00;5076564;28;45256;-76
2022/04/10 05:06:39;;;;;;;;;18.50;17.50;;;;;8.12;79.35;101823.84;5075120;28;46255;-77
2022/04/10 05:09:05;;;;;;;;;17.75;15.50;;;;;8.13;78.67;101824.75;5075778;28;45170;-76
2022/04/10 05:11:31;;;;;;;;;19.75;17.00;;;;;8.11;77.75;101829.78;5076511;27;45408;-77
2022/04/10 05:13:57;;;;;;;;;20.50;18.75;;;;;8.10;77.19;101822.84;5075911;27;45545;-76
2022/04/10 05:16:22;;;;;;;;;20.50;19.00;;;;;8.12;76.74;101825.53;5076470;28;46066;-76
2022/04/10 05:18:49;;;;;;;;;24.75;19.50;;;;;8.05;76.91;101819.06;5057651;28;45690;-78
2022/04/10 05:21:15;;;;;;;;;22.75;21.75;;;;;8.00;77.25;101818.72;5075983;28;45328;-76
2022/04/10 05:23:41;;;;;;;;;25.00;19.25;;;;;8.03;78.12;101829.25;5076288;27;45323;-77
2022/04/10 05:26:06;;;;;;;;;19.00;18.75;;;;;7.89;78.93;101815.34;5075455;28;46035;-76
2022/04/10 05:28:34;;;;;;;;;20.50;18.25;;;;;7.95;80.11;101834.66;5075656;27;45527;-76
2022/04/10 05:31:01;;;;;;;;;27.75;26.25;;;;;7.86;81.58;101822.91;5075606;27;45485;-76
2022/04/10 05:33:27;;;;;;;;;29.25;28.50;;;;;7.82;82.41;101823.44;5076677;28;45660;-76
2022/04/10 05:35:54;;;;;;;;;27.00;25.00;;;;;7.90;83.39;101842.06;5077339;27;45592;-77
2022/04/10 05:38:20;;;;;;;;;33.75;30.00;;;;;7.88;84.08;101843.63;5075865;28;45993;-77
2022/04/10 05:40:52;;;;;;;;;26.75;23.75;;;;;7.89;83.65;101845.41;5075908;27;45378;-77
2022/04/10 05:43:19;;;;;;;;;29.50;27.50;;;;;7.87;84.82;101846.97;5075925;27;45780;-75
2022/04/10 05:45:44;;;;;;;;;33.25;26.00;;;;;7.90;83.99;101854.94;5080849;27;45349;-77
2022/04/10 05:48:10;;;;;;;;;28.00;23.50;;;;;7.89;84.13;101850.56;5095878;27;45444;-77
2022/04/10 05:50:36;;;;;;;;;23.00;23.00;;;;;7.87;83.36;101852.13;5096275;27;45378;-77
2022/04/10 05:53:02;;;;;;;;;27.25;24.25;;;;;7.67;83.35;101830.97;5096200;27;45625;-75
2022/04/10 05:55:29;;;;;;;;;27.50;24.00;;;;;7.87;83.79;101863.38;5094507;27;46184;-75
2022/04/10 05:57:55;;;;;;;;;29.25;24.00;;;;;7.78;83.78;101852.34;5096155;27;45811;-76
2022/04/10 06:00:21;;;;;;;;;28.25;25.25;;;;;7.84;83.53;101864.81;5082991;27;45346;-76
2022/04/10 06:02:47;;;;;;;;;31.75;25.75;;;;;7.85;83.35;101848.56;5075162;28;45495;-75
2022/04/10 06:05:12;;;;;;;;;25.50;24.75;;;;;7.90;83.23;101867.84;5074371;28;46054;-76
2022/04/10 06:07:38;;;;;;;;;31.00;29.00;;;;;7.91;82.83;101874.78;5075350;28;45484;-79
2022/04/10 06:10:05;;;;;;;;;27.50;25.25;;;;;7.82;82.67;101859.53;5085577;27;45967;-74
2022/04/10 06:12:31;;;;;;;;;32.50;29.75;;;;;7.86;83.17;101874.47;5083431;27;45406;-76
2022/04/10 06:14:57;;;;;;;;;20.25;20.25;;;;;7.81;82.43;101867.19;5087226;27;45500;-78
2022/04/10 06:17:22;;;;;;;;;30.00;26.25;;;;;7.79;83.27;101872.19;5078239;27;45376;-83
2022/04/10 06:19:49;;;;;;;;;29.25;27.75;;;;;7.77;82.83;101872.88;5083692;28;45297;-77
2022/04/10 06:22:15;;;;;;;;;28.75;27.00;;;;;7.82;82.79;101879.28;5093294;27;45384;-82
2022/04/10 06:24:41;;;;;;;;;26.50;23.75;;;;;7.80;82.45;101876.56;5103582;27;45228;-84
2022/04/10 06:27:07;;;;;;;;;29.75;26.00;;;;;7.82;82.61;101884.44;5092370;27;45469;-80
2022/04/10 06:29:33;;;;;;;;;30.75;28.50;;;;;7.83;82.80;101876.81;5084839;27;45536;-92
2022/04/10 06:31:58;;;;;;;;;75.50;59.25;;;;;7.83;83.38;101871.66;5088017;27;45534;-83
2022/04/10 06:34:24;;;;;;;;;45.25;36.25;;;;;7.84;83.30;101870.88;5089984;27;45627;-83
2022/04/10 06:36:53;;;;;;;;;36.00;32.00;;;;;7.78;83.13;101856.63;5108507;27;45435;-81
2022/04/10 06:39:20;;;;;;;;;32.75;29.25;;;;;7.92;83.15;101878.25;5089409;28;45158;-86
2022/04/10 06:41:46;;;;;;;;;30.50;27.00;;;;;7.92;83.23;101871.44;5067191;28;45459;-82
2022/04/10 06:44:11;;;;;;;;;39.75;31.50;;;;;7.96;83.45;101875.13;5082386;28;46174;-83
2022/04/10 06:46:37;;;;;;;;;35.75;29.75;;;;;7.77;83.01;101836.78;5084398;28;45427;-85
2022/04/10 06:49:03;;;;;;;;;31.50;30.75;;;;;7.80;83.00;101845.63;5063743;28;45370;-90
2022/04/10 06:51:29;;;;;;;;;33.75;31.50;;;;;8.05;82.94;101879.25;5070548;27;45486;-82
2022/04/10 06:53:55;;;;;;;;;31.75;30.50;;;;;8.08;82.27;101876.03;5084167;27;45859;-83
2022/04/10 06:56:21;;;;;;;;;31.25;27.25;;;;;7.89;82.63;101843.72;5106802;27;45328;-82
2022/04/10 06:58:47;;;;;;;;;29.50;26.75;;;;;7.95;83.05;101848.44;5101894;27;45418;-84
2022/04/10 07:01:13;;;;;;;;;34.00;33.75;;;;;8.17;83.04;101880.91;5083912;27;45555;-76
2022/04/10 07:03:39;;;;;;;;;35.25;32.25;;;;;8.18;82.42;101877.56;5099006;27;45439;-78
2022/04/10 07:06:05;;;;;;;;;33.75;31.75;;;;;8.17;82.48;101873.19;5098834;27;45806;-83
2022/04/10 07:08:32;;;;;;;;;41.00;36.50;;;;;8.24;82.49;101869.34;5078931;27;45551;-76
2022/04/10 07:10:58;;;;;;;;;36.75;33.50;;;;;8.17;82.75;101856.03;5077045;28;45391;-75
2022/04/10 07:13:23;;;;;;;;;37.00;33.25;;;;;8.36;82.85;101878.91;5077823;28;45905;-75
2022/04/10 07:15:52;;;;;;;;;59.25;46.75;;;;;8.41;83.42;101865.41;5077840;28;45451;-79
2022/04/10 07:18:18;;;;;;;;;53.00;44.00;;;;;8.49;83.36;101867.78;5077108;27;45514;-78
2022/04/10 07:20:45;;;;;;;;;60.50;49.00;;;;;8.51;83.71;101861.03;5080775;27;45331;-76
2022/04/10 07:25:55;;;;;;;;;39.00;35.75;;;;;8.64;83.53;101859.28;5090286;27;45346;-77
2022/04/10 07:28:22;;;;;;;;;52.75;42.00;;;;;8.57;83.71;101850.25;5087171;27;45174;-80
2022/04/10 07:30:48;;;;;;;;;57.50;44.75;;;;;8.66;83.78;101850.88;5080267;27;45510;-74
2022/04/10 07:33:14;;;;;;;;;59.50;48.00;;;;;8.83;83.59;101871.78;5075444;27;45413;-76
2022/04/10 07:35:40;;;;;;;;;42.00;37.75;;;;;8.82;83.48;101864.84;5077904;28;45961;-74
2022/04/10 07:38:06;;;;;;;;;43.00;36.75;;;;;8.82;83.99;101864.84;5077869;28;45296;-76
2022/04/10 07:40:33;;;;;;;;;47.00;38.75;;;;;8.91;83.64;101868.03;5077067;28;45430;-77
2022/04/10 07:42:59;;;;;;;;;45.50;37.50;;;;;8.98;83.97;101870.28;5076390;28;45368;-75
2022/04/10 07:48:10;;;;;;;;;71.50;56.00;;;;;9.07;84.19;101869.09;5076645;28;45306;-75
2022/04/10 07:50:35;;;;;;;;;36.00;30.75;;;;;9.14;83.62;101868.72;5077346;27;45276;-75
2022/04/10 07:53:02;;;;;;;;;51.25;40.00;;;;;9.16;83.74;101864.56;5076703;28;45951;-74
2022/04/10 07:55:28;;;;;;;;;60.00;47.75;;;;;9.22;83.20;101867.56;5076785;28;45330;-74
2022/04/10 07:57:54;;;;;;;;;57.00;43.00;;;;;9.33;83.53;101876.03;5075965;28;45498;-75
2022/04/10 08:00:19;;;;;;;;;47.25;38.00;;;;;9.34;83.30;101864.91;5076648;27;45357;-77
2022/04/10 08:02:49;;;;;;;;;56.00;42.00;;;;;9.43;83.90;101870.69;5076677;28;45464;-75
2022/04/10 08:05:16;;;;;;;;;57.25;46.00;;;;;9.42;84.33;101858.53;5076868;28;45347;-83
2022/04/10 08:07:44;;;;;;;;;49.25;39.00;;;;;9.55;83.17;101864.53;5076949;27;45430;-77
2022/04/10 08:10:10;;;;;;;;;51.00;40.25;;;;;9.58;83.97;101857.88;5077957;28;45505;-77
2022/04/10 08:12:36;;;;;;;;;48.00;40.50;;;;;9.67;83.22;101865.34;5078415;28;45309;-76
2022/04/10 08:15:03;;;;;;;;;48.00;37.75;;;;;9.73;82.45;101859.69;5077121;28;45258;-80
2022/04/10 08:17:29;;;;;;;;;49.25;40.00;;;;;9.79;81.42;101861.78;5077221;27;45394;-75
2022/04/10 08:19:55;;;;;;;;;46.75;38.75;;;;;9.81;80.47;101868.81;5077275;28;45506;-75
2022/04/10 08:22:27;;;;;;;;;45.25;37.00;;;;;9.84;79.91;101858.69;5076449;27;45347;-75
2022/04/10 08:24:53;;;;;;;;;53.00;43.50;;;;;9.86;80.43;101863.94;5076174;28;45826;-77
2022/04/10 08:27:19;;;;;;;;;49.75;39.25;;;;;9.94;79.49;101869.63;5076505;27;45220;-74
2022/04/10 08:29:46;;;;;;;;;45.50;39.00;;;;;9.92;79.09;101864.34;5076813;28;45185;-75
2022/04/10 08:32:11;;;;;;;;;53.50;42.25;;;;;9.91;79.60;101847.03;5075876;27;45437;-75
2022/04/10 08:34:37;;;;;;;;;45.00;39.00;;;;;9.99;78.79;101856.19;5076798;28;45460;-74
2022/04/10 08:37:05;;;;;;;;;31.50;30.50;;;;;10.05;76.46;101855.69;5076618;28;45328;-75
2022/04/10 08:39:32;;;;;;;;;27.00;26.75;;;;;10.11;75.10;101861.22;5077030;27;45385;-79
2022/04/10 08:42:02;;;;;;;;;40.00;34.00;;;;;10.17;73.61;101866.81;5074778;27;45316;-73
2022/04/10 08:44:29;;;;;;;;;31.75;27.25;;;;;10.22;73.52;101872.28;5076263;27;45434;-75
2022/04/10 08:46:55;;;;;;;;;36.75;33.25;;;;;10.25;73.38;101867.31;5076006;27;45387;-76
2022/04/10 08:49:24;;;;;;;;;40.50;35.00;;;;;10.29;74.36;101870.97;5076333;28;45335;-76
2022/04/10 08:51:51;;;;;;;;;56.50;46.75;;;;;10.35;74.18;101863.59;5076739;28;45362;-74
2022/04/10 08:54:19;;;;;;;;;40.00;35.25;;;;;10.39;73.43;101863.03;5077338;27;46014;-78
2022/04/10 08:56:44;;;;;;;;;31.75;28.25;;;;;10.41;72.36;101861.44;5076450;28;45450;-75
2022/04/10 08:59:10;;;;;;;;;33.75;28.50;;;;;10.43;71.72;101864.09;5076104;28;45503;-79
2022/04/10 09:01:35;;;;;;;;;35.25;31.75;;;;;10.40;71.10;101857.06;5076055;28;46235;-75
2022/04/10 09:04:01;;;;;;;;;34.75;28.25;;;;;10.44;70.13;101856.41;5076058;27;45450;-79
2022/04/10 09:06:27;;;;;;;;;22.75;19.50;;;;;10.48;66.59;101858.41;5076172;28;45323;-74
2022/04/10 09:09:10;;;;;;;;;15.75;14.25;;;;;10.52;63.64;101863.00;5075405;28;45611;-74
2022/04/10 09:11:39;;;;;;;;;12.75;11.00;;;;;10.52;62.68;101863.00;5076005;28;45375;-76
2022/04/10 09:14:04;;;;;;;;;10.00;8.50;;;;;10.49;62.61;101849.84;5076596;28;45902;-76
2022/04/10 09:16:30;;;;;;;;;9.25;9.00;;;;;10.55;62.21;101867.47;5076073;27;45308;-76
2022/04/10 09:18:58;;;;;;;;;11.00;9.25;;;;;10.57;60.64;101871.06;5074832;28;45424;-73
2022/04/10 09:21:30;;;;;;;;;10.75;9.50;;;;;10.59;57.84;101858.19;5075924;27;46246;-74
2022/04/10 09:24:04;;;;;;;;;12.50;11.50;;;;;10.59;58.70;101859.06;5075816;27;45299;-74
2022/04/10 09:26:44;;;;;;;;;10.50;8.00;;;;;10.63;58.52;101857.59;5074888;28;45161;-76
2022/04/10 09:29:10;;;;;;;;;13.75;11.25;;;;;10.64;58.67;101856.75;5074951;27;45539;-77
2022/04/10 09:31:36;;;;;;;;;15.50;13.25;;;;;10.65;58.18;101850.78;5076381;28;45549;-73
2022/04/10 09:34:11;;;;;;;;;13.25;10.75;;;;;10.74;56.71;101861.72;5077918;28;45224;-77
2022/04/10 09:36:38;;;;;;;;;15.00;12.00;;;;;10.73;57.20;101849.56;5078696;28;45347;-73
2022/04/10 09:39:06;;;;;;;;;12.50;12.25;;;;;10.75;57.08;101853.13;5076329;28;45584;-73
2022/04/10 09:41:32;;;;;;;;;9.75;8.25;;;;;10.80;56.34;101862.09;5074976;28;45939;-79
2022/04/10 09:44:11;;;;;;;;;13.00;11.00;;;;;10.77;56.18;101858.41;5074532;27;45260;-74
2022/04/10 09:46:37;;;;;;;;;10.50;9.50;;;;;10.80;56.23;101861.16;5073900;27;45400;-78
2022/04/10 09:49:04;;;;;;;;;12.00;11.75;;;;;10.79;56.29;101847.34;5075026;28;45166;-76
2022/04/10 09:51:30;;;;;;;;;11.00;11.00;;;;;10.91;56.22;101856.66;5074619;28;45642;-78
2022/04/10 09:54:04;;;;;;;;;7.25;5.00;;;;;10.94;58.69;101849.06;5078014;28;45189;-76
2022/04/10 09:56:31;;;;;;;;;14.25;13.25;;;;;10.92;57.75;101851.56;5078584;28;45306;-76
2022/04/10 09:58:59;;;;;;;;;10.00;9.75;;;;;10.96;55.13;101839.72;5078829;27;45252;-80
2022/04/10 10:01:29;;;;;;;;;10.50;7.50;;;;;11.05;55.03;101854.88;5078130;28;45288;-79
2022/04/10 10:03:56;;;;;;;;;10.25;9.75;;;;;11.06;54.76;101842.03;5077807;28;45855;-76
2022/04/10 10:06:23;;;;;;;;;7.00;6.00;;;;;11.15;53.70;101852.94;5078687;27;45374;-76
2022/04/10 10:08:49;;;;;;;;;8.00;6.00;;;;;11.15;53.55;101844.25;5078922;28;45528;-76
2022/04/10 10:11:16;;;;;;;;;7.75;7.25;;;;;11.18;53.28;101851.31;5078364;28;46357;-74
2022/04/10 10:13:42;;;;;;;;;13.00;10.75;;;;;11.17;54.88;101849.56;5081370;27;45355;-76
2022/04/10 10:16:08;;;;;;;;;12.75;10.75;;;;;11.22;53.96;101840.34;5081193;28;45343;-74
2022/04/10 10:18:34;;;;;;;;;12.25;8.25;;;;;11.24;54.08;101841.31;5060590;28;45580;-74
2022/04/10 10:21:02;;;;;;;;;10.75;10.50;;;;;11.26;53.97;101838.00;5079726;28;46171;-76
2022/04/10 10:23:28;;;;;;;;;14.50;12.00;;;;;11.22;53.60;101829.97;5078277;27;45883;-77
2022/04/10 10:26:07;;;;;;;;;7.25;7.25;;;;;11.34;52.64;101837.59;5077893;27;45444;-73
2022/04/10 10:29:10;;;;;;;;;6.00;6.00;;;;;11.36;51.88;101833.34;5078226;28;45423;-73
2022/04/10 10:32:02;;;;;;;;;7.75;5.75;;;;;11.36;52.04;101831.69;5078313;27;45518;-75
2022/04/10 10:34:29;;;;;;;;;6.75;5.00;;;;;11.32;51.83;101823.63;5078011;27;45836;-77
2022/04/10 10:36:55;;;;;;;;;8.25;7.00;;;;;11.32;51.36;101818.44;5077671;28;45354;-75
2022/04/10 10:39:22;;;;;;;;;8.25;6.00;;;;;11.37;52.70;101832.56;5078257;28;45597;-73
2022/04/10 10:41:51;;;;;;;;;7.75;5.75;;;;;11.34;53.25;101817.72;5077354;28;46086;-75
2022/04/10 10:44:41;;;;;;;;;7.00;6.00;;;;;11.40;52.41;101818.06;5080025;28;45440;-74
2022/04/10 10:47:25;;;;;;;;;8.75;7.25;;;;;11.39;52.89;101816.28;5081550;27;45444;-76
2022/04/10 10:49:53;;;;;;;;;7.25;6.50;;;;;11.44;53.39;101817.44;5080140;28;45448;-82
2022/04/10 10:52:20;;;;;;;;;18.25;15.00;;;;;11.50;52.98;101809.13;5078488;28;45508;-79
2022/04/10 10:54:55;;;;;;;;;12.75;12.50;;;;;11.54;52.77;101811.09;5078425;28;45788;-74
2022/04/10 10:57:41;;;;;;;;;8.00;7.25;;;;;11.61;50.75;101807.13;5062248;28;45304;-78
2022/04/10 11:00:12;;;;;;;;;7.50;6.25;;;;;11.61;50.54;101800.25;5078759;27;45316;-77
2022/04/10 11:02:39;;;;;;;;;6.00;5.00;;;;;11.63;49.13;101794.25;5078725;27;45367;-75
2022/04/10 11:05:29;;;;;;;;;6.00;4.00;;;;;11.71;49.05;101798.19;5077425;28;45228;-78
2022/04/10 11:08:09;;;;;;;;;7.00;6.00;;;;;11.72;49.29;101792.19;5068176;27;45431;-77
2022/04/10 11:10:52;;;;;;;;;6.50;6.00;;;;;11.73;49.06;101781.00;5078591;27;45307;-78
2022/04/10 11:13:19;;;;;;;;;6.50;6.50;;;;;11.70;48.84;101763.56;5078327;28;46555;-76
2022/04/10 11:15:52;;;;;;;;;6.00;6.00;;;;;11.92;48.56;101783.78;5078631;28;45868;-72
2022/04/10 11:18:49;;;;;;;;;8.00;7.00;;;;;11.99;47.68;101785.06;5078151;27;45411;-83
2022/04/10 11:21:18;;;;;;;;;54.00;43.00;;;;;12.04;48.07;101777.53;5078992;28;45345;-83
2022/04/10 11:23:48;;;;;;;;;27.75;22.00;;;;;11.98;47.56;101765.09;5079780;27;46535;-78
2022/04/10 11:26:21;;;;;;;;;9.00;7.50;;;;;12.10;48.31;101771.78;5061013;28;45360;-75